Time;durP1;ratioP1;P1;durP2;ratioP2;P2;SDS_P1;SDS_P2;PMS_P1;PMS_P2;Temp;Humidity;BMP_temperature;BMP_pressure;BME280_temperature;BME280_humidity;BME280_pressure;Samples;Min_cycle;Max_cycle;Signal;HPM_P1;HPM_P2
2023/01/31 00:01:39;;;;;;;18.48;2.63;;;4.80;99.90;;;;;;4937311;28;93437;-74
2023/01/31 00:04:10;;;;;;;24.65;4.05;;;4.80;99.90;;;;;;4936778;28;92533;-74
2023/01/31 00:06:42;;;;;;;14.90;2.85;;;4.70;99.90;;;;;;4936737;28;92364;-74
2023/01/31 00:09:11;;;;;;;14.50;2.88;;;4.70;99.90;;;;;;4937166;28;93200;-74
2023/01/31 00:11:38;;;;;;;21.55;2.88;;;4.70;99.90;;;;;;4938051;28;93003;-74
2023/01/31 00:14:07;;;;;;;29.70;3.05;;;4.70;99.90;;;;;;4936351;28;92468;-74
2023/01/31 00:16:34;;;;;;;17.40;4.72;;;4.60;99.90;;;;;;4937821;28;93116;-74
2023/01/31 00:19:03;;;;;;;22.80;2.95;;;4.60;99.90;;;;;;4934605;28;94854;-74
2023/01/31 00:21:31;;;;;;;19.63;2.90;;;4.60;99.90;;;;;;4920286;28;95442;-74
2023/01/31 00:23:58;;;;;;;19.20;3.28;;;4.60;99.90;;;;;;4937389;28;92476;-74
2023/01/31 00:26:31;;;;;;;19.30;3.35;;;4.50;99.90;;;;;;4937632;28;92459;-75
2023/01/31 00:29:00;;;;;;;19.20;2.95;;;4.50;99.90;;;;;;4919887;28;95433;-74
2023/01/31 00:31:29;;;;;;;18.25;2.80;;;4.50;99.90;;;;;;4935966;28;93897;-74
2023/01/31 00:33:57;;;;;;;17.88;2.72;;;4.40;99.90;;;;;;4935983;28;92476;-74
2023/01/31 00:36:27;;;;;;;11.38;2.42;;;4.40;99.90;;;;;;4936411;28;91749;-74
2023/01/31 00:38:57;;;;;;;23.65;2.70;;;4.40;99.90;;;;;;4937171;28;94184;-73
2023/01/31 00:41:25;;;;;;;17.40;2.28;;;4.30;99.90;;;;;;4935484;28;95660;-72
2023/01/31 00:43:52;;;;;;;22.10;2.70;;;4.30;99.90;;;;;;4918836;28;94797;-72
2023/01/31 00:46:21;;;;;;;20.33;2.97;;;4.30;99.90;;;;;;4936951;28;92481;-72
2023/01/31 00:48:49;;;;;;;19.98;2.67;;;4.30;99.90;;;;;;4935858;28;93249;-73
2023/01/31 00:51:16;;;;;;;15.43;2.63;;;4.30;99.90;;;;;;4936754;28;93278;-73
2023/01/31 00:53:43;;;;;;;15.85;2.70;;;4.30;99.90;;;;;;4935982;28;92464;-73
2023/01/31 00:56:13;;;;;;;17.45;2.67;;;4.20;99.90;;;;;;4919773;28;92505;-74
2023/01/31 00:58:41;;;;;;;13.82;2.00;;;4.20;99.90;;;;;;4919753;28;96336;-73
2023/01/31 01:01:13;;;;;;;12.93;2.85;;;4.20;99.90;;;;;;4936889;28;91875;-73
2023/01/31 01:03:42;;;;;;;16.33;3.33;;;4.20;99.90;;;;;;4919652;28;92593;-73
2023/01/31 01:06:10;;;;;;;13.90;2.58;;;4.10;99.90;;;;;;4935198;28;92592;-73
2023/01/31 01:08:39;;;;;;;19.50;3.30;;;4.10;99.90;;;;;;4935662;28;95636;-74
2023/01/31 01:11:15;;;;;;;19.88;2.63;;;4.10;99.90;;;;;;4934966;28;98205;-74
2023/01/31 01:13:43;;;;;;;25.30;2.70;;;4.10;99.90;;;;;;4919575;28;93349;-73
2023/01/31 01:16:37;;;;;;;23.17;2.95;;;4.00;99.90;;;;;;4935290;28;92433;-74
2023/01/31 01:19:07;;;;;;;15.52;2.50;;;4.00;99.90;;;;;;4936435;28;93159;-74
2023/01/31 01:21:38;;;;;;;22.35;3.40;;;3.90;99.90;;;;;;4936364;28;93953;-73
2023/01/31 01:24:10;;;;;;;19.80;2.28;;;3.90;99.90;;;;;;4936451;28;92494;-73
2023/01/31 01:26:38;;;;;;;16.98;2.35;;;3.90;99.90;;;;;;4935826;28;91762;-73
2023/01/31 01:29:05;;;;;;;17.52;2.33;;;3.90;99.90;;;;;;4903222;28;95542;-73
2023/01/31 01:31:32;;;;;;;25.45;2.78;;;3.80;99.90;;;;;;4935132;28;95731;-73
2023/01/31 01:34:07;;;;;;;23.38;2.58;;;3.80;99.90;;;;;;4934145;28;94895;-73
2023/01/31 01:36:36;;;;;;;14.57;3.00;;;3.80;99.90;;;;;;4935053;28;92438;-73
2023/01/31 01:39:06;;;;;;;12.02;1.95;;;3.80;99.90;;;;;;4919008;28;95918;-73
2023/01/31 01:41:33;;;;;;;13.88;2.50;;;3.80;99.90;;;;;;4934863;28;95582;-74
2023/01/31 01:44:03;;;;;;;15.00;2.33;;;3.70;99.90;;;;;;4936653;28;92487;-73
2023/01/31 01:46:40;;;;;;;20.83;2.63;;;3.70;99.90;;;;;;4935989;28;92511;-73
2023/01/31 01:49:35;;;;;;;14.88;2.80;;;3.80;99.90;;;;;;4936149;28;93243;-73
2023/01/31 01:52:06;;;;;;;15.75;2.25;;;3.70;99.90;;;;;;4918999;28;96054;-73
2023/01/31 01:54:54;;;;;;;24.08;4.60;;;3.70;99.90;;;;;;4934850;28;92446;-73
2023/01/31 01:57:27;;;;;;;21.65;2.58;;;3.70;99.90;;;;;;4918647;28;92547;-73
2023/01/31 02:00:06;;;;;;;18.77;2.80;;;3.70;99.90;;;;;;4934761;28;95802;-73
2023/01/31 02:02:42;;;;;;;14.50;2.42;;;3.70;99.90;;;;;;4934462;28;95059;-73
2023/01/31 02:05:14;;;;;;;14.32;3.20;;;3.70;99.90;;;;;;4920444;28;92926;-73
2023/01/31 02:07:41;;;;;;;17.10;2.83;;;3.70;99.90;;;;;;4921962;28;92589;-73
2023/01/31 02:10:48;;;;;;;16.25;2.50;;;3.70;99.90;;;;;;4922058;28;95733;-73
2023/01/31 02:13:17;;;;;;;12.88;2.42;;;3.70;99.90;;;;;;4921244;28;96111;-74
2023/01/31 02:15:45;;;;;;;18.92;2.78;;;3.70;99.90;;;;;;4938086;28;96248;-73
2023/01/31 02:18:12;;;;;;;18.05;2.97;;;3.80;99.90;;;;;;4922150;28;91792;-73
2023/01/31 02:21:17;;;;;;;15.80;2.38;;;3.80;99.90;;;;;;4937808;28;95904;-73
2023/01/31 02:24:22;;;;;;;17.75;2.22;;;3.80;99.90;;;;;;4939236;28;92933;-73
2023/01/31 02:27:07;;;;;;;10.70;2.55;;;3.80;99.90;;;;;;4926215;28;95115;-73
2023/01/31 02:29:49;;;;;;;11.30;2.60;;;3.80;99.90;;;;;;4937742;28;92857;-73
2023/01/31 02:32:45;;;;;;;19.63;2.42;;;3.90;99.90;;;;;;4921595;28;96194;-73
2023/01/31 02:35:22;;;;;;;14.65;2.40;;;4.00;99.90;;;;;;4937307;28;95499;-73
2023/01/31 02:38:18;;;;;;;10.13;1.88;;;4.10;99.90;;;;;;4937790;28;92876;-73
2023/01/31 02:40:48;;;;;;;16.33;2.15;;;4.10;99.90;;;;;;4921976;28;92985;-73
2023/01/31 02:43:27;;;;;;;11.05;2.03;;;4.20;99.90;;;;;;4937443;28;95495;-73
2023/01/31 02:46:08;;;;;;;13.50;1.98;;;4.20;99.90;;;;;;4938152;28;95234;-74
2023/01/31 02:48:45;;;;;;;15.10;2.25;;;4.30;99.90;;;;;;4937155;28;93097;-74
2023/01/31 02:51:22;;;;;;;14.20;2.00;;;4.30;99.90;;;;;;4937438;28;92925;-73
2023/01/31 02:54:19;;;;;;;12.52;2.20;;;4.30;99.90;;;;;;4920515;28;98317;-74
2023/01/31 02:56:49;;;;;;;11.07;2.03;;;4.40;99.90;;;;;;4934795;28;98266;-73
2023/01/31 02:59:25;;;;;;;8.55;1.92;;;4.40;99.90;;;;;;4937544;28;92573;-74
2023/01/31 03:02:01;;;;;;;13.90;2.40;;;4.40;99.90;;;;;;4937108;28;92623;-74
2023/01/31 03:04:32;;;;;;;8.98;2.22;;;4.50;99.90;;;;;;4936654;28;95530;-73
2023/01/31 03:07:07;;;;;;;7.97;2.40;;;4.50;99.90;;;;;;4937735;28;93020;-72
2023/01/31 03:10:20;;;;;;;15.00;2.10;;;4.60;99.90;;;;;;4937049;28;92505;-74
2023/01/31 03:13:05;;;;;;;13.23;2.00;;;4.60;99.90;;;;;;4929570;28;91770;-73
2023/01/31 03:19:12;;;;;;;12.48;2.25;;;4.70;99.90;;;;;;4938323;28;93180;-73
2023/01/31 03:22:03;;;;;;;12.35;2.25;;;4.70;99.90;;;;;;4935862;28;94932;-73
2023/01/31 03:24:30;;;;;;;14.95;2.95;;;4.70;99.90;;;;;;4937017;28;92429;-73
2023/01/31 03:27:01;;;;;;;9.00;2.13;;;4.70;99.90;;;;;;4937032;28;93348;-73
2023/01/31 03:29:33;;;;;;;11.70;2.17;;;4.70;99.90;;;;;;4936782;28;95408;-74
2023/01/31 03:32:15;;;;;;;9.50;1.95;;;4.70;99.90;;;;;;4936909;28;92480;-73
2023/01/31 03:34:43;;;;;;;14.77;2.20;;;4.80;99.90;;;;;;4936551;28;92565;-73
2023/01/31 03:37:38;;;;;;;14.60;2.90;;;4.80;99.90;;;;;;4920945;28;95772;-73
2023/01/31 03:40:24;;;;;;;10.35;2.75;;;4.90;99.90;;;;;;4937018;28;95843;-73
2023/01/31 03:43:32;;;;;;;14.20;1.98;;;4.90;99.90;;;;;;4936762;28;92421;-73
2023/01/31 03:46:08;;;;;;;10.52;1.92;;;5.00;99.90;;;;;;4935665;28;92539;-73
2023/01/31 03:48:41;;;;;;;15.65;2.10;;;5.00;99.90;;;;;;4949183;28;97952;-73
2023/01/31 03:51:16;;;;;;;15.63;2.63;;;5.00;99.90;;;;;;4920610;28;97783;-73
2023/01/31 03:54:06;;;;;;;11.68;2.47;;;5.00;99.90;;;;;;4936587;28;92406;-74
2023/01/31 03:56:49;;;;;;;13.65;2.42;;;5.10;99.90;;;;;;4936217;28;92573;-73
2023/01/31 03:59:21;;;;;;;7.85;2.45;;;5.10;99.90;;;;;;4936438;28;95842;-73
2023/01/31 04:01:52;;;;;;;13.30;2.30;;;5.10;99.90;;;;;;4936034;28;95267;-73
2023/01/31 04:04:47;;;;;;;15.55;2.30;;;5.10;99.90;;;;;;4936634;28;92525;-73
2023/01/31 04:07:16;;;;;;;11.95;2.03;;;5.20;99.90;;;;;;4936785;28;91702;-73
2023/01/31 04:09:44;;;;;;;13.43;1.90;;;5.10;99.90;;;;;;4935781;28;94637;-73
2023/01/31 04:12:13;;;;;;;14.55;2.08;;;5.10;99.90;;;;;;4936459;28;93271;-73
2023/01/31 04:14:41;;;;;;;8.95;1.95;;;5.10;99.90;;;;;;4936305;28;94935;-73
2023/01/31 04:17:08;;;;;;;9.32;2.40;;;5.10;99.90;;;;;;4936002;28;92575;-73
2023/01/31 04:19:35;;;;;;;22.10;2.97;;;5.10;99.90;;;;;;4936367;28;93355;-73
2023/01/31 04:22:02;;;;;;;12.50;2.53;;;5.20;99.90;;;;;;4936198;28;93056;-73
2023/01/31 04:24:29;;;;;;;14.90;2.60;;;5.20;99.90;;;;;;4936310;28;92539;-73
2023/01/31 04:26:56;;;;;;;13.00;2.97;;;5.20;99.90;;;;;;4935931;28;92578;-73
2023/01/31 04:29:23;;;;;;;12.02;3.45;;;5.20;99.90;;;;;;4936277;28;93232;-73
2023/01/31 04:31:50;;;;;;;9.93;2.58;;;5.30;99.90;;;;;;4919642;28;95954;-73
2023/01/31 04:34:17;;;;;;;12.10;2.70;;;5.30;99.90;;;;;;4936193;28;92590;-73
2023/01/31 04:36:44;;;;;;;20.27;3.03;;;5.30;99.90;;;;;;4937263;28;92576;-73
2023/01/31 04:39:12;;;;;;;14.13;3.05;;;5.30;99.90;;;;;;4935949;28;94867;-73
2023/01/31 04:41:39;;;;;;;13.40;2.70;;;5.40;99.90;;;;;;4935690;28;95476;-73
2023/01/31 04:44:06;;;;;;;14.95;3.55;;;5.40;99.90;;;;;;4919877;28;92604;-73
2023/01/31 04:46:33;;;;;;;12.40;3.13;;;5.50;99.90;;;;;;4937239;28;92486;-73
2023/01/31 04:49:00;;;;;;;12.18;2.70;;;5.50;99.90;;;;;;4935703;28;94931;-73
2023/01/31 04:51:27;;;;;;;18.95;4.38;;;5.50;99.90;;;;;;4937131;28;93073;-73
2023/01/31 04:53:55;;;;;;;11.48;2.25;;;5.60;99.90;;;;;;4935997;28;92435;-73
2023/01/31 04:56:22;;;;;;;16.45;2.90;;;5.60;99.90;;;;;;4937389;28;91780;-73
2023/01/31 04:58:49;;;;;;;18.08;3.17;;;5.60;99.90;;;;;;4919789;28;92521;-73
2023/01/31 05:01:15;;;;;;;18.42;3.15;;;5.60;99.90;;;;;;4936743;28;92857;-74
2023/01/31 05:03:43;;;;;;;17.92;3.05;;;5.70;99.90;;;;;;4918320;28;94965;-73
2023/01/31 05:06:10;;;;;;;18.65;3.03;;;5.70;99.90;;;;;;4935331;28;92496;-73
2023/01/31 05:08:37;;;;;;;15.35;2.83;;;5.70;99.90;;;;;;4936931;28;93464;-73
2023/01/31 05:11:07;;;;;;;17.05;3.22;;;5.80;99.90;;;;;;4935529;28;93918;-73
2023/01/31 05:13:38;;;;;;;16.92;3.20;;;5.80;99.90;;;;;;4935772;28;93566;-73
2023/01/31 05:16:07;;;;;;;15.57;3.42;;;5.80;99.90;;;;;;4936479;28;92458;-73
2023/01/31 05:18:34;;;;;;;17.27;4.03;;;5.80;99.90;;;;;;4935352;28;95762;-73
2023/01/31 05:21:03;;;;;;;22.00;3.47;;;5.90;99.90;;;;;;4919430;28;97409;-73
2023/01/31 05:23:31;;;;;;;20.38;3.40;;;5.90;99.90;;;;;;4935492;28;93212;-73
2023/01/31 05:25:58;;;;;;;18.27;3.13;;;5.90;99.90;;;;;;4935471;28;92563;-73
2023/01/31 05:28:25;;;;;;;19.58;3.10;;;5.90;99.90;;;;;;4934834;28;95757;-73
2023/01/31 05:30:53;;;;;;;16.55;3.22;;;6.00;99.90;;;;;;4935021;28;95240;-73
2023/01/31 05:33:20;;;;;;;13.13;3.13;;;5.90;99.90;;;;;;4936638;28;92504;-73
2023/01/31 05:35:48;;;;;;;20.08;3.58;;;5.90;99.90;;;;;;4919198;28;92523;-73
2023/01/31 05:38:15;;;;;;;13.93;3.00;;;6.00;99.90;;;;;;4936282;28;92444;-73
2023/01/31 05:40:42;;;;;;;18.88;3.10;;;6.00;99.90;;;;;;4938825;28;93149;-73
2023/01/31 05:43:08;;;;;;;15.25;3.35;;;6.00;99.90;;;;;;4938863;28;92901;-74
2023/01/31 05:45:35;;;;;;;18.85;4.10;;;6.00;99.90;;;;;;4939416;28;91748;-73
2023/01/31 05:48:03;;;;;;;24.33;3.55;;;6.00;99.90;;;;;;4938500;28;93305;-73
2023/01/31 05:50:30;;;;;;;17.52;3.75;;;6.10;99.90;;;;;;4938566;28;93044;-73
2023/01/31 05:53:08;;;;;;;18.42;4.13;;;6.10;99.90;;;;;;4937558;28;94907;-73
2023/01/31 05:55:35;;;;;;;16.20;3.55;;;6.10;99.90;;;;;;4939635;28;92435;-73
2023/01/31 05:58:02;;;;;;;22.00;4.47;;;6.10;99.90;;;;;;4938106;28;93242;-74
2023/01/31 06:00:29;;;;;;;17.10;3.30;;;6.20;99.90;;;;;;4938562;28;92985;-73
2023/01/31 06:02:58;;;;;;;19.60;3.88;;;6.20;99.90;;;;;;4939064;28;92848;-73
2023/01/31 06:05:26;;;;;;;15.82;4.05;;;6.30;99.90;;;;;;4938550;28;92556;-74
2023/01/31 06:07:54;;;;;;;21.40;4.13;;;6.30;99.90;;;;;;4921544;28;96310;-73
2023/01/31 06:10:21;;;;;;;25.67;4.00;;;6.40;99.90;;;;;;4922705;28;92157;-73
2023/01/31 06:12:48;;;;;;;21.77;5.10;;;6.40;99.90;;;;;;4937928;28;92571;-73
2023/01/31 06:15:15;;;;;;;17.73;4.57;;;6.40;99.90;;;;;;4939439;28;92552;-74
2023/01/31 06:17:42;;;;;;;19.23;4.28;;;6.50;99.90;;;;;;4936771;28;95703;-74
2023/01/31 06:20:10;;;;;;;17.35;4.65;;;6.50;99.90;;;;;;4937768;28;95645;-73
2023/01/31 06:22:37;;;;;;;19.52;3.60;;;6.50;99.90;;;;;;4939510;28;92461;-74
2023/01/31 06:25:05;;;;;;;16.30;4.63;;;6.60;99.90;;;;;;4939109;28;93010;-73
2023/01/31 06:27:33;;;;;;;16.33;4.18;;;6.60;99.90;;;;;;4937859;28;95336;-73
2023/01/31 06:30:00;;;;;;;14.77;4.60;;;6.70;99.90;;;;;;4921681;28;93064;-74
2023/01/31 06:32:30;;;;;;;18.38;5.35;;;6.70;99.90;;;;;;4937828;28;92586;-73
2023/01/31 06:34:57;;;;;;;22.35;5.22;;;6.70;99.90;;;;;;4937699;28;91748;-73
2023/01/31 06:37:24;;;;;;;20.48;5.15;;;6.70;99.90;;;;;;4939116;28;92981;-74
2023/01/31 06:39:51;;;;;;;15.38;4.85;;;6.80;99.90;;;;;;4937740;28;93194;-74
2023/01/31 06:42:18;;;;;;;19.67;6.32;;;6.80;99.90;;;;;;4937752;28;94962;-74
2023/01/31 06:44:45;;;;;;;25.88;6.47;;;6.80;99.90;;;;;;4937909;28;92561;-73
2023/01/31 06:47:13;;;;;;;17.58;5.50;;;6.80;99.90;;;;;;4938690;28;93395;-74
2023/01/31 06:49:40;;;;;;;21.13;5.38;;;6.90;99.90;;;;;;4937536;28;93003;-73
2023/01/31 06:52:07;;;;;;;18.90;5.43;;;6.90;99.90;;;;;;4938756;28;92471;-73
2023/01/31 06:54:34;;;;;;;19.40;5.30;;;6.90;99.90;;;;;;4937451;28;95278;-73
2023/01/31 06:57:01;;;;;;;22.77;6.03;;;6.90;99.90;;;;;;4938694;28;93222;-73
2023/01/31 06:59:28;;;;;;;23.58;6.25;;;6.90;99.90;;;;;;4939151;28;92959;-74
2023/01/31 07:01:55;;;;;;;18.50;5.20;;;6.90;99.90;;;;;;4938238;28;92447;-74
2023/01/31 07:04:23;;;;;;;26.63;6.53;;;6.90;99.90;;;;;;4937555;28;93065;-74
2023/01/31 07:06:50;;;;;;;26.92;6.28;;;6.90;99.90;;;;;;4936127;28;95728;-74
2023/01/31 07:09:17;;;;;;;23.00;6.40;;;6.90;99.90;;;;;;4936712;28;97986;-74
2023/01/31 07:11:44;;;;;;;17.50;5.90;;;6.90;99.90;;;;;;4938500;28;92465;-74
2023/01/31 07:14:11;;;;;;;19.55;7.07;;;6.90;99.90;;;;;;4921184;28;92861;-74
2023/01/31 07:16:38;;;;;;;25.25;6.97;;;7.00;99.90;;;;;;4938224;28;93262;-74
2023/01/31 07:19:05;;;;;;;26.63;6.40;;;7.00;99.90;;;;;;4938274;28;92541;-74
2023/01/31 07:21:32;;;;;;;15.77;5.05;;;7.00;99.90;;;;;;4937234;28;92467;-74
2023/01/31 07:23:59;;;;;;;22.60;6.03;;;7.00;99.90;;;;;;4937259;28;93158;-74
2023/01/31 07:26:26;;;;;;;22.33;5.25;;;7.10;99.90;;;;;;4904833;28;95770;-74
2023/01/31 07:28:53;;;;;;;19.20;4.82;;;7.00;99.90;;;;;;4936750;28;95895;-74
2023/01/31 07:31:20;;;;;;;20.27;6.18;;;7.10;99.90;;;;;;4919235;28;94908;-74
2023/01/31 07:33:47;;;;;;;30.95;6.32;;;7.10;99.90;;;;;;4937073;28;92617;-74
2023/01/31 07:36:18;;;;;;;18.25;5.55;;;7.10;99.90;;;;;;4936550;28;96176;-74
2023/01/31 07:38:45;;;;;;;26.42;5.93;;;7.10;99.90;;;;;;4938216;28;93344;-74
2023/01/31 07:41:12;;;;;;;20.38;5.75;;;7.10;99.90;;;;;;4920483;28;92551;-74
2023/01/31 07:43:39;;;;;;;18.25;5.68;;;7.20;99.90;;;;;;4936677;28;92515;-74
2023/01/31 07:46:10;;;;;;;21.33;4.55;;;7.10;99.90;;;;;;4937772;28;93107;-74
2023/01/31 07:48:37;;;;;;;15.55;5.40;;;7.20;99.90;;;;;;4937135;28;93113;-74
2023/01/31 07:51:05;;;;;;;23.73;6.32;;;7.20;99.90;;;;;;4936349;28;92866;-74
2023/01/31 07:53:35;;;;;;;16.30;5.45;;;7.20;99.90;;;;;;4938009;28;92450;-74
2023/01/31 07:56:06;;;;;;;17.30;5.50;;;7.30;99.90;;;;;;4935491;28;95678;-74
2023/01/31 07:58:35;;;;;;;17.85;5.53;;;7.30;99.90;;;;;;4936325;28;98016;-74
2023/01/31 08:03:48;;;;;;;18.30;5.25;;;7.30;99.90;;;;;;4937478;28;92479;-74
2023/01/31 08:06:15;;;;;;;27.05;5.70;;;7.30;99.90;;;;;;4936013;28;99323;-74
2023/01/31 08:08:44;;;;;;;16.65;4.82;;;7.40;99.90;;;;;;4937465;28;93611;-74
2023/01/31 08:11:11;;;;;;;14.10;4.15;;;7.40;99.90;;;;;;4937669;28;92455;-74
2023/01/31 08:13:38;;;;;;;15.02;4.20;;;7.40;99.90;;;;;;4937881;28;92060;-74
2023/01/31 08:16:08;;;;;;;15.07;3.92;;;7.50;99.90;;;;;;4936359;28;93312;-74
2023/01/31 08:18:36;;;;;;;15.88;4.72;;;7.50;99.90;;;;;;4936243;28;92920;-74
2023/01/31 08:21:04;;;;;;;18.50;4.55;;;7.60;99.90;;;;;;4919120;28;94948;-74
2023/01/31 08:23:31;;;;;;;16.58;5.00;;;7.60;99.90;;;;;;4937145;28;92403;-74
2023/01/31 08:26:00;;;;;;;13.88;3.88;;;7.60;99.90;;;;;;4937377;28;93389;-74
2023/01/31 08:28:28;;;;;;;11.80;3.95;;;7.60;99.90;;;;;;4935856;28;93104;-75
2023/01/31 08:30:55;;;;;;;16.60;4.63;;;7.70;99.90;;;;;;4937720;28;93120;-74
2023/01/31 08:33:36;;;;;;;16.25;4.22;;;7.70;99.90;;;;;;4936053;28;92573;-74
2023/01/31 08:36:21;;;;;;;15.60;5.22;;;7.80;99.90;;;;;;4935825;28;93358;-74
2023/01/31 08:38:49;;;;;;;14.82;3.72;;;7.80;99.90;;;;;;4937651;28;93413;-74
2023/01/31 08:41:17;;;;;;;11.75;3.70;;;7.80;99.90;;;;;;4936029;28;92602;-74
2023/01/31 08:43:44;;;;;;;11.90;3.67;;;7.80;99.90;;;;;;4937194;28;92957;-74
2023/01/31 08:46:34;;;;;;;14.57;3.75;;;7.90;99.90;;;;;;4935906;28;94940;-74
2023/01/31 08:49:04;;;;;;;13.65;3.10;;;7.90;99.90;;;;;;4935836;28;95814;-74
2023/01/31 08:51:31;;;;;;;14.85;3.72;;;7.90;99.90;;;;;;4936980;28;92449;-74
2023/01/31 08:53:58;;;;;;;9.98;3.10;;;8.00;99.90;;;;;;4919763;28;93939;-74
2023/01/31 08:56:26;;;;;;;12.40;2.95;;;8.00;99.90;;;;;;4919137;28;96304;-74
2023/01/31 08:58:54;;;;;;;14.98;3.40;;;8.00;99.90;;;;;;4935516;28;95774;-74
2023/01/31 09:01:21;;;;;;;11.02;3.70;;;8.00;99.90;;;;;;4934935;28;92550;-74
2023/01/31 09:03:55;;;;;;;5.72;2.53;;;8.00;99.90;;;;;;4936557;28;92008;-74
2023/01/31 09:06:26;;;;;;;11.88;3.90;;;8.00;99.90;;;;;;4919918;28;96001;-74
2023/01/31 09:08:55;;;;;;;14.63;3.03;;;8.10;99.90;;;;;;4919339;28;95712;-74
2023/01/31 09:11:22;;;;;;;11.80;3.10;;;8.10;99.90;;;;;;4918042;28;95449;-74
2023/01/31 09:13:50;;;;;;;10.40;2.58;;;8.10;99.90;;;;;;4934724;28;92504;-74
2023/01/31 09:16:18;;;;;;;15.65;3.28;;;8.20;99.90;;;;;;4919150;28;94591;-74
2023/01/31 09:18:45;;;;;;;14.23;3.13;;;8.20;99.90;;;;;;4935433;28;95650;-74
2023/01/31 09:21:18;;;;;;;13.43;3.10;;;8.20;99.90;;;;;;4935594;28;92501;-74
2023/01/31 09:23:46;;;;;;;7.55;2.80;;;8.20;99.90;;;;;;4934548;28;92508;-74
2023/01/31 09:26:15;;;;;;;16.00;3.72;;;8.30;99.90;;;;;;4936285;28;93231;-74
2023/01/31 09:28:42;;;;;;;9.25;2.92;;;8.30;99.90;;;;;;4935565;28;93068;-74
2023/01/31 09:31:15;;;;;;;11.93;3.28;;;8.30;99.90;;;;;;4936670;28;92434;-74
2023/01/31 09:33:43;;;;;;;16.02;3.33;;;8.30;99.90;;;;;;4936712;28;92482;-74
2023/01/31 09:36:12;;;;;;;13.82;3.72;;;8.40;99.90;;;;;;4933809;28;98301;-74
2023/01/31 09:38:40;;;;;;;18.33;3.85;;;8.40;99.90;;;;;;4935838;28;95449;-74
2023/01/31 09:41:31;;;;;;;14.30;3.00;;;8.40;99.90;;;;;;4935163;28;92939;-74
2023/01/31 09:44:04;;;;;;;16.42;3.72;;;8.50;99.90;;;;;;4935300;28;93268;-74
2023/01/31 09:46:35;;;;;;;16.60;3.00;;;8.50;99.90;;;;;;4935137;28;93193;-74
2023/01/31 09:49:06;;;;;;;20.77;3.45;;;8.50;99.90;;;;;;4936172;28;92991;-74
2023/01/31 09:51:34;;;;;;;11.50;3.78;;;8.60;99.90;;;;;;4936255;28;92506;-74
2023/01/31 09:54:06;;;;;;;10.93;3.03;;;8.60;99.90;;;;;;4935473;28;91833;-74
2023/01/31 09:56:36;;;;;;;9.73;2.70;;;8.70;99.90;;;;;;4936256;28;93706;-74
2023/01/31 09:59:22;;;;;;;13.23;3.40;;;8.70;99.90;;;;;;4935977;28;93079;-74
2023/01/31 10:02:04;;;;;;;9.88;2.60;;;8.80;99.90;;;;;;4934509;28;94876;-74
2023/01/31 10:04:56;;;;;;;10.73;2.97;;;8.80;99.90;;;;;;4936154;28;92384;-75
2023/01/31 10:07:38;;;;;;;13.38;2.67;;;8.90;99.90;;;;;;4935984;28;93579;-74
2023/01/31 10:10:34;;;;;;;11.38;3.47;;;8.90;99.90;;;;;;4934438;28;95801;-74
2023/01/31 10:13:24;;;;;;;14.07;3.95;;;8.90;99.90;;;;;;4936291;28;92462;-74
2023/01/31 10:15:57;;;;;;;13.77;3.55;;;8.90;99.90;;;;;;4934722;28;92537;-74
2023/01/31 10:18:33;;;;;;;10.77;2.78;;;8.90;99.90;;;;;;4935960;28;93316;-74
2023/01/31 10:21:05;;;;;;;12.70;3.80;;;8.90;99.90;;;;;;4918955;28;94662;-74
2023/01/31 10:23:57;;;;;;;10.23;3.30;;;8.90;99.90;;;;;;4935920;28;92531;-74
2023/01/31 10:26:35;;;;;;;15.18;3.15;;;8.90;99.90;;;;;;4936875;28;92486;-74
2023/01/31 10:29:20;;;;;;;17.77;3.03;;;9.00;99.90;;;;;;4936554;28;98262;-74
2023/01/31 10:31:55;;;;;;;13.40;3.38;;;8.90;99.90;;;;;;4937874;28;95547;-74
2023/01/31 10:34:37;;;;;;;14.93;3.42;;;8.90;99.90;;;;;;4938078;28;92534;-74
2023/01/31 10:37:19;;;;;;;15.93;4.20;;;8.90;99.90;;;;;;4939359;28;93010;-74
2023/01/31 10:39:52;;;;;;;11.20;3.15;;;9.00;99.90;;;;;;4921410;28;94712;-74
2023/01/31 10:42:32;;;;;;;9.98;3.47;;;9.00;99.90;;;;;;4937333;28;95893;-74
2023/01/31 10:45:08;;;;;;;11.68;3.20;;;9.00;99.90;;;;;;4939351;28;92535;-74
2023/01/31 10:48:00;;;;;;;10.43;3.78;;;9.10;99.90;;;;;;4938958;28;91715;-74
2023/01/31 10:50:27;;;;;;;18.27;4.22;;;9.10;99.90;;;;;;4937593;28;93262;-74
2023/01/31 10:53:09;;;;;;;19.23;5.00;;;9.10;99.90;;;;;;4938831;28;94669;-74
2023/01/31 10:56:01;;;;;;;17.77;4.65;;;9.10;99.90;;;;;;4937918;28;95335;-74
2023/01/31 10:58:29;;;;;;;8.98;3.10;;;9.20;99.90;;;;;;4939201;28;92455;-74
2023/01/31 11:00:57;;;;;;;15.82;4.63;;;9.10;99.90;;;;;;4937310;28;95939;-74
2023/01/31 11:03:25;;;;;;;13.48;4.28;;;9.10;99.90;;;;;;4937032;28;92964;-74
2023/01/31 11:05:56;;;;;;;14.55;3.33;;;9.10;99.90;;;;;;4937259;28;92471;-74
2023/01/31 11:08:29;;;;;;;16.75;3.95;;;9.10;99.90;;;;;;4938649;28;92495;-74
2023/01/31 11:11:03;;;;;;;13.70;3.67;;;9.10;99.90;;;;;;4937313;28;93340;-74
2023/01/31 11:13:30;;;;;;;13.18;4.05;;;9.00;99.90;;;;;;4937928;28;93180;-74
2023/01/31 11:15:57;;;;;;;13.43;3.72;;;9.10;99.90;;;;;;4921606;28;92884;-74
2023/01/31 11:18:28;;;;;;;16.25;5.07;;;9.10;99.90;;;;;;4938717;28;92464;-74
2023/01/31 11:20:57;;;;;;;10.32;3.30;;;9.10;99.90;;;;;;4935652;28;95375;-74
2023/01/31 11:23:27;;;;;;;9.68;2.92;;;9.10;99.90;;;;;;4937240;28;95331;-74
2023/01/31 11:25:55;;;;;;;9.48;3.40;;;9.10;99.90;;;;;;4936743;28;92541;-74
2023/01/31 11:28:40;;;;;;;11.23;3.28;;;9.00;99.90;;;;;;4936914;28;92548;-75
2023/01/31 11:31:20;;;;;;;11.68;3.22;;;9.00;99.90;;;;;;4938427;28;93305;-74
2023/01/31 11:34:08;;;;;;;11.75;4.03;;;9.00;99.90;;;;;;4936968;28;93712;-74
2023/01/31 11:36:44;;;;;;;8.23;3.30;;;9.00;99.90;;;;;;4938267;28;92378;-74
2023/01/31 11:39:33;;;;;;;11.43;3.28;;;9.00;99.90;;;;;;4938777;28;91674;-74
2023/01/31 11:42:12;;;;;;;9.05;3.45;;;9.00;99.90;;;;;;4938337;28;93632;-74
2023/01/31 11:44:57;;;;;;;14.68;3.65;;;9.10;99.90;;;;;;4938263;28;93037;-74
2023/01/31 11:47:51;;;;;;;13.13;3.80;;;9.10;99.90;;;;;;4935564;28;94946;-74
2023/01/31 11:50:49;;;;;;;12.35;3.50;;;9.00;99.90;;;;;;4937386;28;92540;-74
2023/01/31 11:53:25;;;;;;;11.38;3.20;;;9.10;99.90;;;;;;4934221;28;96072;-74
2023/01/31 11:55:56;;;;;;;8.30;3.00;;;9.10;99.90;;;;;;4937970;28;92950;-74
2023/01/31 11:58:38;;;;;;;11.43;3.45;;;9.00;99.90;;;;;;4937916;28;92471;-74
2023/01/31 12:01:07;;;;;;;10.52;3.95;;;9.00;99.90;;;;;;4938098;28;92436;-74
2023/01/31 12:03:35;;;;;;;11.18;3.20;;;9.00;99.90;;;;;;4937296;28;92476;-74
2023/01/31 12:06:06;;;;;;;10.07;3.08;;;9.00;99.90;;;;;;4937872;28;92100;-74
2023/01/31 12:08:36;;;;;;;14.48;3.05;;;9.10;99.90;;;;;;4938062;28;92953;-74
2023/01/31 12:11:18;;;;;;;12.15;2.85;;;9.10;99.90;;;;;;4936252;28;92431;-74
2023/01/31 12:13:47;;;;;;;13.30;3.63;;;9.20;99.90;;;;;;4918651;28;98518;-74
2023/01/31 12:16:19;;;;;;;13.25;3.47;;;9.10;99.90;;;;;;4936049;28;95399;-74
2023/01/31 12:18:52;;;;;;;11.70;3.83;;;9.20;99.90;;;;;;4937892;28;92373;-74
2023/01/31 12:21:37;;;;;;;15.20;3.30;;;9.20;99.90;;;;;;4936274;28;92488;-74
2023/01/31 12:24:25;;;;;;;13.95;3.58;;;9.30;99.90;;;;;;4936067;28;95901;-74
2023/01/31 12:27:15;;;;;;;11.23;2.97;;;9.40;99.90;;;;;;4919619;28;95508;-74
2023/01/31 12:30:05;;;;;;;16.60;4.25;;;9.40;99.90;;;;;;4934721;28;92590;-74
2023/01/31 12:32:47;;;;;;;13.10;3.28;;;9.60;99.90;;;;;;4938153;28;91714;-74
2023/01/31 12:35:32;;;;;;;14.95;3.40;;;9.70;99.90;;;;;;4937287;28;93367;-74
2023/01/31 12:38:45;;;;;;;8.88;2.88;;;9.80;99.90;;;;;;4936833;28;92992;-74
2023/01/31 12:41:51;;;;;;;13.02;2.72;;;9.90;99.90;;;;;;4936060;28;94900;-74
2023/01/31 12:44:24;;;;;;;16.35;4.28;;;9.90;99.90;;;;;;4918670;28;92627;-74
2023/01/31 12:47:12;;;;;;;17.75;3.45;;;10.00;99.90;;;;;;4934349;28;95689;-75
2023/01/31 12:49:45;;;;;;;14.48;3.58;;;10.20;99.90;;;;;;4961068;28;92997;-74
2023/01/31 12:52:30;;;;;;;24.23;3.87;;;10.20;99.90;;;;;;4937222;28;92967;-74
2023/01/31 12:55:13;;;;;;;10.95;2.70;;;10.30;99.90;;;;;;4936941;28;92457;-74
2023/01/31 12:58:02;;;;;;;16.37;3.70;;;10.30;99.90;;;;;;4937252;28;93308;-75
2023/01/31 13:00:54;;;;;;;12.25;3.35;;;10.40;99.90;;;;;;4935651;28;94698;-74
2023/01/31 13:03:50;;;;;;;12.25;3.17;;;10.30;99.90;;;;;;4931277;28;92769;-74
2023/01/31 13:06:32;;;;;;;17.13;4.05;;;10.40;99.90;;;;;;4936357;28;92515;-74
2023/01/31 13:09:21;;;;;;;8.68;2.85;;;10.40;99.90;;;;;;4935446;28;95555;-74
2023/01/31 13:12:13;;;;;;;13.77;3.00;;;10.50;99.90;;;;;;4935258;28;97749;-75
2023/01/31 13:14:43;;;;;;;10.45;2.38;;;10.50;99.90;;;;;;4936991;28;92476;-74
2023/01/31 13:17:20;;;;;;;12.50;2.80;;;10.60;99.90;;;;;;4919094;28;92454;-74
2023/01/31 13:19:54;;;;;;;9.20;2.17;;;10.60;99.90;;;;;;4935154;28;95887;-74
2023/01/31 13:22:31;;;;;;;8.88;2.50;;;10.70;99.90;;;;;;4935585;28;93077;-74
2023/01/31 13:25:23;;;;;;;9.38;2.58;;;10.70;99.90;;;;;;4936730;28;92501;-74
2023/01/31 13:28:05;;;;;;;11.73;3.30;;;10.70;99.90;;;;;;4932653;28;91999;-74